createdAt,value
2022-08-29T00:01:36.238Z,13.44
2022-08-29T00:04:40.637Z,13.56
2022-08-29T00:07:43.420Z,13.29
2022-08-29T00:10:46.503Z,13.39
2022-08-29T00:13:49.458Z,13.02
2022-08-29T00:16:52.411Z,13.21
2022-08-29T00:19:56.494Z,13.20
2022-08-29T00:23:00.100Z,13.05
2022-08-29T00:26:03.234Z,13.28
2022-08-29T00:29:06.069Z,13.30
2022-08-29T00:32:08.877Z,13.39
2022-08-29T00:35:15.590Z,13.38
2022-08-29T00:38:19.332Z,13.37
2022-08-29T00:41:22.225Z,13.17
2022-08-29T00:44:24.985Z,13.10
2022-08-29T00:47:33.042Z,12.95
2022-08-29T00:50:41.662Z,13.17
2022-08-29T00:53:49.337Z,13.16
2022-08-29T00:56:52.374Z,13.14
2022-08-29T00:59:55.940Z,13.14
2022-08-29T01:02:58.841Z,13.12
2022-08-29T01:06:04.915Z,13.11
2022-08-29T01:09:09.154Z,13.07
2022-08-29T01:12:17.464Z,13.12
2022-08-29T01:15:20.635Z,13.07
2022-08-29T01:18:25.446Z,13.01
2022-08-29T01:26:17.154Z,13.01
2022-08-29T01:29:20.216Z,13.04
2022-08-29T01:32:24.431Z,13.01
2022-08-29T01:35:27.419Z,12.90
2022-08-29T01:38:30.186Z,12.90
2022-08-29T01:41:35.492Z,12.91
2022-08-29T01:44:38.590Z,12.83
2022-08-29T01:47:41.386Z,12.88
2022-08-29T01:50:44.204Z,12.76
2022-08-29T01:53:47.125Z,12.82
2022-08-29T01:56:53.085Z,12.90
2022-08-29T01:59:56.560Z,12.80
2022-08-29T02:03:00.998Z,12.73
2022-08-29T02:06:05.321Z,12.77
2022-08-29T02:09:11.254Z,12.84
2022-08-29T02:12:16.565Z,12.90
2022-08-29T02:15:19.344Z,12.80
2022-08-29T02:18:22.336Z,12.69
2022-08-29T02:21:29.161Z,12.63
2022-08-29T02:24:32.092Z,12.68
2022-08-29T02:27:36.258Z,12.71
2022-08-29T02:30:39.166Z,12.70
2022-08-29T02:33:41.927Z,12.58
2022-08-29T02:36:45.242Z,12.61
2022-08-29T02:39:52.057Z,12.62
2022-08-29T02:42:57.043Z,12.51
2022-08-29T02:46:00.257Z,12.61
2022-08-29T02:49:03.021Z,12.63
2022-08-29T02:52:08.543Z,12.53
2022-08-29T02:55:15.493Z,12.61
2022-08-29T02:58:21.279Z,12.42
2022-08-29T03:01:26.094Z,12.61
2022-08-29T03:04:28.859Z,12.55
2022-08-29T03:07:31.592Z,12.64
2022-08-29T03:10:35.640Z,12.65
2022-08-29T03:13:39.790Z,12.65
2022-08-29T03:16:42.581Z,12.54
2022-08-29T03:19:45.386Z,12.33
2022-08-29T03:22:49.178Z,12.21
2022-08-29T03:25:51.998Z,12.35
2022-08-29T03:28:56.214Z,12.33
2022-08-29T03:31:59.775Z,12.30
2022-08-29T03:35:02.626Z,12.34
2022-08-29T03:38:05.461Z,12.37
2022-08-29T03:41:08.894Z,12.37
2022-08-29T03:44:13.479Z,12.43
2022-08-29T03:47:16.289Z,12.38
2022-08-29T03:50:20.157Z,12.29
2022-08-29T03:53:22.946Z,12.31
2022-08-29T03:56:26.089Z,12.35
2022-08-29T03:59:31.973Z,12.47
2022-08-29T04:02:34.962Z,12.43
2022-08-29T04:05:37.970Z,12.41
2022-08-29T04:08:40.726Z,12.29
2022-08-29T04:11:43.503Z,12.40
2022-08-29T04:14:48.043Z,12.43
2022-08-29T04:17:54.455Z,12.41
2022-08-29T04:21:02.718Z,12.47
2022-08-29T04:24:05.604Z,12.47
2022-08-29T04:27:08.338Z,12.51
2022-08-29T04:30:17.198Z,12.47
2022-08-29T04:33:22.533Z,12.49
2022-08-29T04:36:28.223Z,12.39
2022-08-29T04:39:30.963Z,12.43
2022-08-29T04:42:33.730Z,12.45
2022-08-29T04:45:40.413Z,12.46
2022-08-29T04:48:43.349Z,12.38
2022-08-29T04:51:46.170Z,12.34
2022-08-29T04:54:49.091Z,12.31
2022-08-29T04:57:53.492Z,12.32
2022-08-29T05:00:57.877Z,12.17
2022-08-29T05:04:00.901Z,12.26
2022-08-29T05:07:03.743Z,12.23
2022-08-29T05:10:09.304Z,12.26
2022-08-29T05:13:12.476Z,12.17
2022-08-29T05:16:18.578Z,12.20
2022-08-29T05:19:21.453Z,12.31
2022-08-29T05:22:24.716Z,12.31
2022-08-29T05:25:27.521Z,12.27
2022-08-29T05:28:32.452Z,12.29
2022-08-29T05:31:37.574Z,12.31
2022-08-29T05:34:40.608Z,12.27
2022-08-29T05:37:43.404Z,12.30
2022-08-29T05:40:46.367Z,12.33
2022-08-29T05:43:49.270Z,12.24
2022-08-29T05:46:54.058Z,12.01
2022-08-29T05:49:56.815Z,12.11
2022-08-29T05:52:59.833Z,12.14
2022-08-29T05:56:03.138Z,12.27
2022-08-29T05:59:06.197Z,12.33
2022-08-29T06:02:11.744Z,12.38
2022-08-29T06:05:15.051Z,12.37
2022-08-29T06:08:18.059Z,12.49
2022-08-29T06:11:23.738Z,12.51
2022-08-29T06:14:26.870Z,12.33
2022-08-29T06:17:31.026Z,12.51
2022-08-29T06:20:33.894Z,12.41
2022-08-29T06:23:37.406Z,12.49
2022-08-29T06:26:40.188Z,12.63
2022-08-29T06:29:43.906Z,12.62
2022-08-29T06:32:48.214Z,12.72
2022-08-29T06:35:51.069Z,12.80
2022-08-29T06:38:56.378Z,12.87
2022-08-29T06:41:59.152Z,12.90
2022-08-29T06:45:01.953Z,12.76
2022-08-29T06:48:06.371Z,12.92
2022-08-29T06:51:09.127Z,13.09
2022-08-29T06:54:14.787Z,13.19
2022-08-29T06:57:18.156Z,13.30
2022-08-29T07:00:22.209Z,13.34
2022-08-29T07:03:26.881Z,13.38
2022-08-29T07:06:31.156Z,13.60
2022-08-29T07:09:34.116Z,13.66
2022-08-29T07:12:36.911Z,13.70
2022-08-29T07:15:39.770Z,13.79
2022-08-29T07:18:44.087Z,13.96
2022-08-29T07:21:48.924Z,14.13
2022-08-29T07:24:51.697Z,14.20
2022-08-29T07:27:54.469Z,14.29
2022-08-29T07:30:57.364Z,14.43
2022-08-29T07:34:02.937Z,14.51
2022-08-29T07:37:06.140Z,14.64
2022-08-29T07:40:11.534Z,14.81
2022-08-29T07:43:17.911Z,14.90
2022-08-29T07:46:22.894Z,15.09
2022-08-29T07:49:40.225Z,15.07
2022-08-29T07:52:43.645Z,15.20
2022-08-29T07:55:46.653Z,15.28
2022-08-29T07:58:49.470Z,15.33
2022-08-29T08:01:52.370Z,15.49
2022-08-29T08:04:56.856Z,15.53
2022-08-29T08:08:04.724Z,15.69
2022-08-29T08:11:11.771Z,15.70
2022-08-29T08:14:14.792Z,15.75
2022-08-29T08:17:17.517Z,15.75
2022-08-29T08:20:21.778Z,15.57
2022-08-29T08:23:24.560Z,15.85
2022-08-29T08:26:27.863Z,15.99
2022-08-29T08:29:30.652Z,16.01
2022-08-29T08:32:33.434Z,16.08
2022-08-29T08:35:41.939Z,16.22
2022-08-29T08:38:45.398Z,16.31
2022-08-29T08:41:54.209Z,16.42
2022-08-29T08:45:05.191Z,16.51
2022-08-29T08:48:12.147Z,16.75
2022-08-29T08:51:23.034Z,16.78
2022-08-29T08:54:29.659Z,16.91
2022-08-29T08:57:39.923Z,17.03
2022-08-29T09:00:47.564Z,17.02
2022-08-29T09:04:04.487Z,17.14
2022-08-29T09:07:22.393Z,17.17
2022-08-29T09:10:31.408Z,17.25
2022-08-29T09:13:46.724Z,17.29
2022-08-29T09:16:53.759Z,17.30
2022-08-29T09:19:57.634Z,17.53
2022-08-29T09:23:05.609Z,17.43
2022-08-29T09:26:08.753Z,17.49
2022-08-29T09:29:13.887Z,17.66
2022-08-29T09:32:22.106Z,17.73
2022-08-29T09:35:27.758Z,17.71
2022-08-29T09:38:31.981Z,17.74
2022-08-29T09:41:34.823Z,17.67
2022-08-29T09:44:37.962Z,17.98
2022-08-29T09:47:40.782Z,18.07
2022-08-29T09:50:43.706Z,17.89
2022-08-29T09:53:47.939Z,18.11
2022-08-29T09:56:55.845Z,18.19
2022-08-29T10:00:16.126Z,18.27
2022-08-29T10:03:24.623Z,18.33
2022-08-29T10:06:29.998Z,18.36
2022-08-29T10:09:34.097Z,18.23
2022-08-29T10:12:44.177Z,18.44
2022-08-29T10:15:53.275Z,18.46
2022-08-29T10:19:00.232Z,18.52
2022-08-29T10:22:09.682Z,18.61
2022-08-29T10:25:20.981Z,18.69
2022-08-29T10:28:34.060Z,18.78
2022-08-29T10:31:41.610Z,18.52
2022-08-29T10:35:01.823Z,18.62
2022-08-29T10:38:13.488Z,18.80
2022-08-29T10:41:39.592Z,18.82
2022-08-29T10:44:54.408Z,18.84
2022-08-29T10:48:05.489Z,18.90
2022-08-29T10:51:18.196Z,19.03
2022-08-29T10:54:33.730Z,19.10
2022-08-29T10:57:48.272Z,19.21
2022-08-29T11:00:58.579Z,19.53
2022-08-29T11:04:17.364Z,19.59
2022-08-29T11:07:30.078Z,19.33
2022-08-29T11:10:42.786Z,19.26
2022-08-29T11:13:51.040Z,19.36
2022-08-29T11:16:56.240Z,19.14
2022-08-29T11:20:11.809Z,19.37
2022-08-29T11:23:24.365Z,19.41
2022-08-29T11:26:42.313Z,19.77
2022-08-29T11:29:52.925Z,19.76
2022-08-29T11:33:09.573Z,19.67
2022-08-29T11:36:37.649Z,19.67
2022-08-29T11:39:56.516Z,19.78
2022-08-29T11:43:02.957Z,20.00
2022-08-29T11:46:17.760Z,19.98
2022-08-29T11:49:33.876Z,19.93
2022-08-29T11:52:37.075Z,20.11
2022-08-29T11:55:42.315Z,20.25
2022-08-29T11:58:48.331Z,20.19
2022-08-29T12:02:03.128Z,20.14
2022-08-29T12:05:08.293Z,19.97
2022-08-29T12:08:35.991Z,20.11
2022-08-29T12:12:13.104Z,20.11
2022-08-29T12:15:54.923Z,20.19
2022-08-29T12:19:00.025Z,20.14
2022-08-29T12:22:04.943Z,20.16
2022-08-29T12:26:09.484Z,20.24
2022-08-29T12:29:23.329Z,20.40
2022-08-29T12:32:52.734Z,20.46
2022-08-29T12:36:11.071Z,20.53
2022-08-29T12:39:27.753Z,20.50
2022-08-29T12:42:42.900Z,20.50
2022-08-29T12:45:48.290Z,20.56
2022-08-29T12:48:58.060Z,20.57
2022-08-29T12:52:05.612Z,20.70
2022-08-29T12:55:23.949Z,20.72
2022-08-29T12:58:39.586Z,20.58
2022-08-29T13:01:48.470Z,20.52
2022-08-29T13:04:51.304Z,20.69
2022-08-29T13:07:57.476Z,20.89
2022-08-29T13:11:03.217Z,20.82
2022-08-29T13:14:09.251Z,20.84
2022-08-29T13:17:15.588Z,20.82
2022-08-29T13:20:48.631Z,20.69
2022-08-29T13:24:02.186Z,20.96
2022-08-29T13:27:09.151Z,20.89
2022-08-29T13:30:23.039Z,20.73
2022-08-29T13:33:35.627Z,20.86
2022-08-29T13:36:42.364Z,20.94
2022-08-29T13:39:48.604Z,20.94
2022-08-29T13:42:51.793Z,20.98
2022-08-29T13:46:15.424Z,20.93
2022-08-29T13:49:21.015Z,21.00
2022-08-29T13:52:24.377Z,20.97
2022-08-29T13:55:36.383Z,20.96
2022-08-29T13:58:39.120Z,20.92
2022-08-29T14:05:04.821Z,20.94
2022-08-29T14:08:07.968Z,20.93
2022-08-29T14:11:12.321Z,20.85
2022-08-29T14:14:15.399Z,21.00
2022-08-29T14:17:19.328Z,21.08
2022-08-29T14:20:22.759Z,20.98
2022-08-29T14:23:25.507Z,21.11
2022-08-29T14:26:29.623Z,21.24
2022-08-29T14:29:34.014Z,20.94
2022-08-29T14:32:37.210Z,20.93
2022-08-29T14:35:41.797Z,20.98
2022-08-29T14:38:46.154Z,20.82
2022-08-29T14:41:50.299Z,20.86
2022-08-29T14:44:53.721Z,20.84
2022-08-29T14:47:56.745Z,20.83
2022-08-29T14:50:59.493Z,20.79
2022-08-29T14:54:02.283Z,20.79
2022-08-29T14:57:06.724Z,20.82
2022-08-29T15:00:13.038Z,20.75
2022-08-29T15:03:16.278Z,20.87
2022-08-29T15:06:19.683Z,20.92
2022-08-29T15:09:22.562Z,20.96
2022-08-29T15:12:28.007Z,20.81
2022-08-29T15:15:30.867Z,20.82
2022-08-29T15:19:22.418Z,20.78
2022-08-29T15:21:59.647Z,20.79
2022-08-29T15:25:04.271Z,20.76
2022-08-29T15:28:11.877Z,20.82
2022-08-29T15:31:15.157Z,20.74
2022-08-29T15:34:18.021Z,20.64
2022-08-29T15:37:20.919Z,20.67
2022-08-29T15:40:24.138Z,20.70
2022-08-29T15:43:28.398Z,20.70
2022-08-29T15:46:32.258Z,20.70
2022-08-29T15:49:40.536Z,20.68
2022-08-29T15:52:43.348Z,20.66
2022-08-29T15:55:46.143Z,20.70
2022-08-29T15:58:50.498Z,20.59
2022-08-29T16:01:54.649Z,20.58
2022-08-29T16:04:57.739Z,20.52
2022-08-29T16:08:01.155Z,20.49
2022-08-29T16:11:04.719Z,20.46
2022-08-29T16:17:32.148Z,20.37
2022-08-29T16:20:41.387Z,20.37
2022-08-29T16:23:44.495Z,20.31
2022-08-29T16:26:47.261Z,20.30
2022-08-29T16:29:51.420Z,20.24
2022-08-29T16:32:54.801Z,20.18
2022-08-29T16:35:58.777Z,20.14
2022-08-29T16:39:01.897Z,20.15
2022-08-29T16:42:05.033Z,20.12
2022-08-29T16:45:11.601Z,20.09
2022-08-29T16:48:17.051Z,20.05
2022-08-29T16:51:25.303Z,20.02
2022-08-29T16:54:28.678Z,20.03
2022-08-29T16:57:31.646Z,19.98
2022-08-29T17:00:37.038Z,19.94
2022-08-29T17:03:40.189Z,19.93
2022-08-29T17:06:43.519Z,19.90
2022-08-29T17:09:47.273Z,19.88
2022-08-29T17:12:49.059Z,19.85
2022-08-29T17:15:52.244Z,19.78
2022-08-29T17:18:55.025Z,19.67
2022-08-29T17:21:58.745Z,19.56
2022-08-29T17:25:01.855Z,19.55
2022-08-29T17:28:17.584Z,19.43
2022-08-29T17:31:23.910Z,19.46
2022-08-29T17:34:27.478Z,19.32
2022-08-29T17:37:36.072Z,19.13
2022-08-29T17:40:42.549Z,18.89
2022-08-29T17:43:47.323Z,18.89
2022-08-29T17:46:51.974Z,18.86
2022-08-29T17:49:55.606Z,18.69
2022-08-29T17:52:58.783Z,18.58
2022-08-29T17:56:11.841Z,18.47
2022-08-29T17:59:20.026Z,18.37
2022-08-29T18:02:28.858Z,18.42
2022-08-29T18:05:31.674Z,18.38
2022-08-29T18:08:38.342Z,18.18
2022-08-29T18:11:46.649Z,17.98
2022-08-29T18:14:54.864Z,18.05
2022-08-29T18:18:01.958Z,18.06
2022-08-29T18:21:05.752Z,18.07
2022-08-29T18:24:11.114Z,17.89
2022-08-29T18:27:14.787Z,17.90
2022-08-29T18:30:17.681Z,17.94
2022-08-29T18:33:22.430Z,17.92
2022-08-29T18:36:25.432Z,17.90
2022-08-29T18:39:28.222Z,17.81
2022-08-29T18:42:40.400Z,17.78
2022-08-29T18:45:44.299Z,17.35
2022-08-29T18:48:48.767Z,17.35
2022-08-29T18:51:51.775Z,17.26
2022-08-29T18:54:55.068Z,17.33
2022-08-29T18:57:58.273Z,17.33
2022-08-29T19:01:10.852Z,17.30
2022-08-29T19:04:25.227Z,17.22
2022-08-29T19:07:29.060Z,17.12
2022-08-29T19:10:32.664Z,16.95
2022-08-29T19:13:36.463Z,16.77
2022-08-29T19:16:42.728Z,16.53
2022-08-29T19:20:10.065Z,16.57
2022-08-29T19:23:14.828Z,16.77
2022-08-29T19:26:19.971Z,16.89
2022-08-29T19:29:25.795Z,16.68
2022-08-29T19:32:29.377Z,16.55
2022-08-29T19:35:34.400Z,16.16
2022-08-29T19:38:41.753Z,16.18
2022-08-29T19:41:45.095Z,15.83
2022-08-29T19:44:48.781Z,15.60
2022-08-29T19:47:52.641Z,15.70
2022-08-29T19:50:58.098Z,15.39
2022-08-29T19:54:06.169Z,15.52
2022-08-29T19:57:08.930Z,15.39
2022-08-29T20:00:19.153Z,15.41
2022-08-29T20:03:22.552Z,15.53
2022-08-29T20:06:29.356Z,15.27
2022-08-29T20:09:32.750Z,15.17
2022-08-29T20:12:39.647Z,15.20
2022-08-29T20:15:45.672Z,15.26
2022-08-29T20:18:48.456Z,15.02
2022-08-29T20:21:56.381Z,14.96
2022-08-29T20:25:00.010Z,15.21
2022-08-29T20:28:03.166Z,15.23
2022-08-29T20:31:07.304Z,15.09
2022-08-29T20:34:11.443Z,14.69
2022-08-29T20:37:17.084Z,14.47
2022-08-29T20:40:20.173Z,14.50
2022-08-29T20:43:24.452Z,14.55
2022-08-29T20:46:28.639Z,14.45
2022-08-29T20:49:31.695Z,14.34
2022-08-29T20:52:38.541Z,14.14
2022-08-29T20:55:42.346Z,14.24
2022-08-29T20:58:46.343Z,14.19
2022-08-29T21:01:49.764Z,14.07
2022-08-29T21:05:12.972Z,14.18
2022-08-29T21:08:19.373Z,14.08
2022-08-29T21:11:22.543Z,14.18
2022-08-29T21:14:27.305Z,14.30
2022-08-29T21:17:32.278Z,14.37
2022-08-29T21:20:44.806Z,14.31
2022-08-29T21:23:58.637Z,14.34
2022-08-29T21:27:01.410Z,14.29
2022-08-29T21:30:04.595Z,14.10
2022-08-29T21:33:08.423Z,14.07
2022-08-29T21:36:12.300Z,14.03
2022-08-29T21:39:28.712Z,14.09
2022-08-29T21:42:31.960Z,14.11
2022-08-29T21:45:35.505Z,14.07
2022-08-29T21:48:38.342Z,13.93
2022-08-29T21:51:41.808Z,13.94
2022-08-29T21:54:46.181Z,13.97
2022-08-29T21:57:59.937Z,14.00
2022-08-29T22:01:02.765Z,14.01
2022-08-29T22:04:08.572Z,14.04
2022-08-29T22:07:13.146Z,14.02
2022-08-29T22:10:20.469Z,14.00
2022-08-29T22:13:23.297Z,13.91
2022-08-29T22:16:31.125Z,13.83
2022-08-29T22:19:34.904Z,13.67
2022-08-29T22:22:38.323Z,13.80
2022-08-29T22:25:42.429Z,13.75
2022-08-29T22:28:46.147Z,13.71
2022-08-29T22:31:49.089Z,13.73
2022-08-29T22:34:51.964Z,13.74
2022-08-29T22:37:54.732Z,13.82
2022-08-29T22:40:58.949Z,13.68
2022-08-29T22:44:42.338Z,13.60
2022-08-29T22:47:26.704Z,13.58
2022-08-29T22:50:29.460Z,13.47
2022-08-29T22:53:32.256Z,13.52
2022-08-29T22:56:38.550Z,13.58
2022-08-29T22:59:42.684Z,13.51
2022-08-29T23:02:45.887Z,13.42
2022-08-29T23:05:48.761Z,13.43
2022-08-29T23:08:51.753Z,13.42
2022-08-29T23:11:56.043Z,13.36
2022-08-29T23:15:00.648Z,13.47
2022-08-29T23:18:03.481Z,13.39
2022-08-29T23:21:06.688Z,13.38
2022-08-29T23:24:10.545Z,13.27
2022-08-29T23:27:14.864Z,13.36
2022-08-29T23:30:17.708Z,13.29
2022-08-29T23:33:20.610Z,13.31
2022-08-29T23:36:23.874Z,13.13
2022-08-29T23:39:26.796Z,13.13
2022-08-29T23:42:30.960Z,13.19
2022-08-29T23:45:33.748Z,13.02
2022-08-29T23:48:36.711Z,13.12
2022-08-29T23:51:39.477Z,13.14
2022-08-29T23:54:42.221Z,13.05
2022-08-29T23:57:46.330Z,13.15
